sensor_id;sensor_type;location;lat;lon;timestamp;pressure;altitude;pressure_sealevel;temperature;humidity
45078;BME280;60508;42.622;25.416;2023-09-18T00:01:24;97327.66;;;22.19;58.66
45078;BME280;60508;42.622;25.416;2023-09-18T00:03:50;97327.34;;;22.35;58.30
45078;BME280;60508;42.622;25.416;2023-09-18T00:06:17;97320.06;;;22.30;58.17
45078;BME280;60508;42.622;25.416;2023-09-18T00:08:54;97318.31;;;22.20;58.19
45078;BME280;60508;42.622;25.416;2023-09-18T00:11:21;97318.63;;;22.19;58.52
45078;BME280;60508;42.622;25.416;2023-09-18T00:13:48;97317.19;;;22.21;57.98
45078;BME280;60508;42.622;25.416;2023-09-18T00:16:15;97320.97;;;22.25;57.59
45078;BME280;60508;42.622;25.416;2023-09-18T00:18:42;97317.38;;;22.25;57.46
45078;BME280;60508;42.622;25.416;2023-09-18T00:21:08;97318.94;;;22.31;57.06
45078;BME280;60508;42.622;25.416;2023-09-18T00:23:37;97318.53;;;22.24;57.31
45078;BME280;60508;42.622;25.416;2023-09-18T00:26:04;97318.53;;;22.10;57.60
45078;BME280;60508;42.622;25.416;2023-09-18T00:28:30;97311.22;;;22.19;57.40
45078;BME280;60508;42.622;25.416;2023-09-18T00:30:57;97284.69;;;21.92;57.64
45078;BME280;60508;42.622;25.416;2023-09-18T00:33:24;97317.94;;;21.85;58.88
45078;BME280;60508;42.622;25.416;2023-09-18T00:36:01;97308.50;;;21.92;58.75
45078;BME280;60508;42.622;25.416;2023-09-18T00:38:30;97318.44;;;21.87;59.24
45078;BME280;60508;42.622;25.416;2023-09-18T00:40:57;97305.88;;;22.14;58.85
45078;BME280;60508;42.622;25.416;2023-09-18T00:43:30;97302.91;;;22.11;58.35
45078;BME280;60508;42.622;25.416;2023-09-18T00:45:58;97311.34;;;22.00;58.99
45078;BME280;60508;42.622;25.416;2023-09-18T00:48:25;97306.59;;;22.06;59.00
45078;BME280;60508;42.622;25.416;2023-09-18T00:50:52;97301.72;;;22.03;58.47
45078;BME280;60508;42.622;25.416;2023-09-18T00:53:21;97301.91;;;22.06;58.15
45078;BME280;60508;42.622;25.416;2023-09-18T00:56:00;97301.41;;;21.91;58.53
45078;BME280;60508;42.622;25.416;2023-09-18T00:58:27;97299.47;;;21.91;58.19
45078;BME280;60508;42.622;25.416;2023-09-18T01:00:55;97298.75;;;21.99;57.93
45078;BME280;60508;42.622;25.416;2023-09-18T01:03:22;97299.41;;;21.96;57.77
45078;BME280;60508;42.622;25.416;2023-09-18T01:05:49;97306.66;;;22.01;58.12
45078;BME280;60508;42.622;25.416;2023-09-18T01:08:17;97297.44;;;22.11;58.30
45078;BME280;60508;42.622;25.416;2023-09-18T01:13:54;97300.28;;;22.05;59.73
45078;BME280;60508;42.622;25.416;2023-09-18T01:16:39;97258.78;;;21.76;59.67
45078;BME280;60508;42.622;25.416;2023-09-18T01:19:21;97292.19;;;22.00;59.06
45078;BME280;60508;42.622;25.416;2023-09-18T01:22:00;97295.63;;;22.06;58.78
45078;BME280;60508;42.622;25.416;2023-09-18T01:24:26;97294.63;;;22.16;58.74
45078;BME280;60508;42.622;25.416;2023-09-18T01:26:53;97290.06;;;21.83;59.80
45078;BME280;60508;42.622;25.416;2023-09-18T01:29:20;97291.88;;;21.88;59.83
45078;BME280;60508;42.622;25.416;2023-09-18T01:31:57;97282.06;;;21.87;59.82
45078;BME280;60508;42.622;25.416;2023-09-18T01:34:36;97280.94;;;22.02;59.48
45078;BME280;60508;42.622;25.416;2023-09-18T01:37:04;97276.06;;;21.99;59.94
45078;BME280;60508;42.622;25.416;2023-09-18T01:39:32;97290.69;;;21.80;60.98
45078;BME280;60508;42.622;25.416;2023-09-18T01:42:02;97282.81;;;21.46;62.72
45078;BME280;60508;42.622;25.416;2023-09-18T01:44:31;97286.53;;;21.22;64.56
45078;BME280;60508;42.622;25.416;2023-09-18T01:46:59;97289.66;;;21.15;65.46
45078;BME280;60508;42.622;25.416;2023-09-18T01:49:30;97292.53;;;21.05;66.16
45078;BME280;60508;42.622;25.416;2023-09-18T01:51:57;97296.03;;;21.25;65.82
45078;BME280;60508;42.622;25.416;2023-09-18T01:54:32;97291.56;;;21.48;65.05
45078;BME280;60508;42.622;25.416;2023-09-18T01:57:00;97301.81;;;21.56;64.86
45078;BME280;60508;42.622;25.416;2023-09-18T01:59:27;97300.47;;;21.54;64.99
45078;BME280;60508;42.622;25.416;2023-09-18T02:01:54;97277.44;;;21.27;65.77
45078;BME280;60508;42.622;25.416;2023-09-18T02:04:22;97295.59;;;21.50;65.51
45078;BME280;60508;42.622;25.416;2023-09-18T02:06:59;97293.06;;;21.54;65.20
45078;BME280;60508;42.622;25.416;2023-09-18T02:09:26;97284.25;;;21.43;65.34
45078;BME280;60508;42.622;25.416;2023-09-18T02:11:52;97277.31;;;21.18;65.98
45078;BME280;60508;42.622;25.416;2023-09-18T02:14:19;97292.31;;;21.34;65.21
45078;BME280;60508;42.622;25.416;2023-09-18T02:16:56;97290.72;;;21.33;64.54
45078;BME280;60508;42.622;25.416;2023-09-18T02:19:23;97274.66;;;21.13;64.74
45078;BME280;60508;42.622;25.416;2023-09-18T02:21:50;97287.47;;;20.98;65.12
45078;BME280;60508;42.622;25.416;2023-09-18T02:24:16;97287.78;;;20.97;64.91
45078;BME280;60508;42.622;25.416;2023-09-18T02:26:43;97286.53;;;20.89;64.53
45078;BME280;60508;42.622;25.416;2023-09-18T02:29:11;97289.41;;;20.98;64.13
45078;BME280;60508;42.622;25.416;2023-09-18T02:31:49;97289.09;;;21.00;64.27
45078;BME280;60508;42.622;25.416;2023-09-18T02:34:15;97299.75;;;20.82;65.16
45078;BME280;60508;42.622;25.416;2023-09-18T02:36:42;97295.19;;;20.77;65.88
45078;BME280;60508;42.622;25.416;2023-09-18T02:39:09;97296.28;;;20.76;65.79
45078;BME280;60508;42.622;25.416;2023-09-18T02:41:36;97293.34;;;20.73;65.98
45078;BME280;60508;42.622;25.416;2023-09-18T02:44:13;97293.72;;;20.85;65.61
45078;BME280;60508;42.622;25.416;2023-09-18T02:46:39;97298.97;;;20.82;66.02
45078;BME280;60508;42.622;25.416;2023-09-18T02:49:06;97290.97;;;20.85;65.90
45078;BME280;60508;42.622;25.416;2023-09-18T02:51:33;97289.34;;;20.84;65.70
45078;BME280;60508;42.622;25.416;2023-09-18T02:53:59;97293.03;;;20.74;65.60
45078;BME280;60508;42.622;25.416;2023-09-18T02:56:37;97290.09;;;20.71;65.63
45078;BME280;60508;42.622;25.416;2023-09-18T02:59:04;97303.00;;;20.65;65.88
45078;BME280;60508;42.622;25.416;2023-09-18T03:01:31;97294.16;;;20.54;66.00
45078;BME280;60508;42.622;25.416;2023-09-18T03:03:58;97292.84;;;20.71;65.45
45078;BME280;60508;42.622;25.416;2023-09-18T03:06:25;97306.63;;;20.79;65.07
45078;BME280;60508;42.622;25.416;2023-09-18T03:08:59;97303.25;;;20.69;65.18
45078;BME280;60508;42.622;25.416;2023-09-18T03:11:25;97302.47;;;20.63;65.43
45078;BME280;60508;42.622;25.416;2023-09-18T03:13:55;97301.91;;;20.66;65.12
45078;BME280;60508;42.622;25.416;2023-09-18T03:16:22;97304.69;;;20.61;65.23
45078;BME280;60508;42.622;25.416;2023-09-18T03:18:59;97304.47;;;20.57;65.47
45078;BME280;60508;42.622;25.416;2023-09-18T03:21:26;97305.75;;;20.65;65.46
45078;BME280;60508;42.622;25.416;2023-09-18T03:23:53;97303.66;;;20.76;64.66
45078;BME280;60508;42.622;25.416;2023-09-18T03:26:23;97312.97;;;20.75;64.81
45078;BME280;60508;42.622;25.416;2023-09-18T03:28:49;97306.81;;;20.83;64.30
45078;BME280;60508;42.622;25.416;2023-09-18T03:31:16;97299.81;;;20.58;65.29
45078;BME280;60508;42.622;25.416;2023-09-18T03:33:43;97302.91;;;20.51;65.98
45078;BME280;60508;42.622;25.416;2023-09-18T03:36:21;97302.63;;;20.53;65.84
45078;BME280;60508;42.622;25.416;2023-09-18T03:38:48;97306.91;;;20.78;65.06
45078;BME280;60508;42.622;25.416;2023-09-18T03:41:15;97313.13;;;20.84;64.84
45078;BME280;60508;42.622;25.416;2023-09-18T03:43:54;97307.88;;;20.87;64.88
45078;BME280;60508;42.622;25.416;2023-09-18T03:46:20;97313.75;;;20.94;64.77
45078;BME280;60508;42.622;25.416;2023-09-18T03:48:49;97302.78;;;20.81;65.07
45078;BME280;60508;42.622;25.416;2023-09-18T03:51:16;97311.09;;;20.89;65.25
45078;BME280;60508;42.622;25.416;2023-09-18T03:53:54;97314.44;;;20.86;65.27
45078;BME280;60508;42.622;25.416;2023-09-18T03:56:21;97312.22;;;20.88;65.44
45078;BME280;60508;42.622;25.416;2023-09-18T03:58:48;97317.16;;;20.86;65.25
45078;BME280;60508;42.622;25.416;2023-09-18T04:01:24;97313.41;;;20.82;65.56
45078;BME280;60508;42.622;25.416;2023-09-18T04:03:50;97318.59;;;20.65;66.53
45078;BME280;60508;42.622;25.416;2023-09-18T04:06:21;97321.16;;;20.56;66.73
45078;BME280;60508;42.622;25.416;2023-09-18T04:08:55;97323.25;;;20.64;66.60
45078;BME280;60508;42.622;25.416;2023-09-18T04:11:22;97323.34;;;20.54;66.71
45078;BME280;60508;42.622;25.416;2023-09-18T04:13:52;97317.59;;;20.55;66.63
45078;BME280;60508;42.622;25.416;2023-09-18T04:16:19;97322.13;;;20.65;66.52
45078;BME280;60508;42.622;25.416;2023-09-18T04:18:45;97320.50;;;20.64;66.43
45078;BME280;60508;42.622;25.416;2023-09-18T04:21:12;97315.41;;;20.76;65.92
45078;BME280;60508;42.622;25.416;2023-09-18T04:23:39;97317.25;;;20.81;65.67
45078;BME280;60508;42.622;25.416;2023-09-18T04:26:07;97316.06;;;20.68;65.74
45078;BME280;60508;42.622;25.416;2023-09-18T04:28:33;97317.50;;;20.66;65.88
45078;BME280;60508;42.622;25.416;2023-09-18T04:31:11;97323.09;;;20.74;65.22
45078;BME280;60508;42.622;25.416;2023-09-18T04:33:39;97317.69;;;20.69;65.12
45078;BME280;60508;42.622;25.416;2023-09-18T04:36:05;97324.84;;;20.84;65.06
45078;BME280;60508;42.622;25.416;2023-09-18T04:38:32;97326.69;;;20.89;64.76
45078;BME280;60508;42.622;25.416;2023-09-18T04:41:00;97322.03;;;20.89;65.25
45078;BME280;60508;42.622;25.416;2023-09-18T04:43:37;97325.59;;;20.71;66.14
45078;BME280;60508;42.622;25.416;2023-09-18T04:46:07;97327.94;;;20.77;65.89
45078;BME280;60508;42.622;25.416;2023-09-18T04:48:34;97319.38;;;20.84;65.30
45078;BME280;60508;42.622;25.416;2023-09-18T04:51:08;97320.44;;;20.88;65.07
45078;BME280;60508;42.622;25.416;2023-09-18T04:53:35;97326.09;;;20.73;65.64
45078;BME280;60508;42.622;25.416;2023-09-18T04:56:02;97328.09;;;20.86;64.93
45078;BME280;60508;42.622;25.416;2023-09-18T04:58:31;97330.69;;;20.96;64.51
45078;BME280;60508;42.622;25.416;2023-09-18T05:00:59;97323.78;;;20.99;64.39
45078;BME280;60508;42.622;25.416;2023-09-18T05:03:28;97323.19;;;21.02;64.36
45078;BME280;60508;42.622;25.416;2023-09-18T05:06:06;97320.28;;;20.79;64.71
45078;BME280;60508;42.622;25.416;2023-09-18T05:08:32;97325.78;;;20.36;65.54
45078;BME280;60508;42.622;25.416;2023-09-18T05:10:59;97326.72;;;20.46;65.41
45078;BME280;60508;42.622;25.416;2023-09-18T05:13:27;97332.44;;;20.68;64.66
45078;BME280;60508;42.622;25.416;2023-09-18T05:15:53;97332.38;;;20.73;64.93
45078;BME280;60508;42.622;25.416;2023-09-18T05:18:20;97333.84;;;20.85;64.54
45078;BME280;60508;42.622;25.416;2023-09-18T05:20:48;97324.38;;;20.96;64.22
45078;BME280;60508;42.622;25.416;2023-09-18T05:23:25;97334.88;;;21.08;63.86
45078;BME280;60508;42.622;25.416;2023-09-18T05:25:52;97331.56;;;20.92;64.63
45078;BME280;60508;42.622;25.416;2023-09-18T05:28:19;97341.22;;;21.03;64.00
45078;BME280;60508;42.622;25.416;2023-09-18T05:30:56;97343.03;;;21.27;63.80
45078;BME280;60508;42.622;25.416;2023-09-18T05:33:23;97344.78;;;21.37;63.59
45078;BME280;60508;42.622;25.416;2023-09-18T05:35:49;97340.19;;;21.65;62.58
45078;BME280;60508;42.622;25.416;2023-09-18T05:38:20;97349.09;;;21.24;63.04
45078;BME280;60508;42.622;25.416;2023-09-18T05:40:47;97335.94;;;21.26;63.18
45078;BME280;60508;42.622;25.416;2023-09-18T05:43:14;97337.00;;;21.11;63.59
45078;BME280;60508;42.622;25.416;2023-09-18T05:45:41;97335.75;;;21.36;63.28
45078;BME280;60508;42.622;25.416;2023-09-18T05:48:08;97336.28;;;21.38;62.75
45078;BME280;60508;42.622;25.416;2023-09-18T05:50:36;97333.00;;;21.36;62.95
45078;BME280;60508;42.622;25.416;2023-09-18T05:53:03;97344.38;;;21.43;63.01
45078;BME280;60508;42.622;25.416;2023-09-18T05:55:35;97333.53;;;21.38;62.59
45078;BME280;60508;42.622;25.416;2023-09-18T05:58:11;97333.69;;;21.28;62.59
45078;BME280;60508;42.622;25.416;2023-09-18T06:00:38;97334.47;;;21.14;63.57
45078;BME280;60508;42.622;25.416;2023-09-18T06:03:04;97334.44;;;21.47;62.89
45078;BME280;60508;42.622;25.416;2023-09-18T06:05:32;97325.31;;;21.71;62.17
45078;BME280;60508;42.622;25.416;2023-09-18T06:08:08;97327.53;;;21.83;61.61
45078;BME280;60508;42.622;25.416;2023-09-18T06:10:35;97326.66;;;22.01;60.97
45078;BME280;60508;42.622;25.416;2023-09-18T06:13:02;97339.41;;;22.20;60.44
45078;BME280;60508;42.622;25.416;2023-09-18T06:15:31;97335.38;;;21.10;62.80
45078;BME280;60508;42.622;25.416;2023-09-18T06:17:58;97342.19;;;20.93;64.37
45078;BME280;60508;42.622;25.416;2023-09-18T06:20:24;97341.19;;;21.55;63.09
45078;BME280;60508;42.622;25.416;2023-09-18T06:22:52;97334.03;;;21.59;62.72
45078;BME280;60508;42.622;25.416;2023-09-18T06:25:18;97340.81;;;21.89;61.74
45078;BME280;60508;42.622;25.416;2023-09-18T06:27:47;97347.00;;;21.67;61.77
45078;BME280;60508;42.622;25.416;2023-09-18T06:30:24;97331.91;;;21.84;61.23
45078;BME280;60508;42.622;25.416;2023-09-18T06:32:50;97348.63;;;22.24;60.09
45078;BME280;60508;42.622;25.416;2023-09-18T06:35:19;97355.19;;;22.51;58.65
45078;BME280;60508;42.622;25.416;2023-09-18T06:37:45;97353.16;;;21.73;59.68
45078;BME280;60508;42.622;25.416;2023-09-18T06:40:12;97342.06;;;21.83;60.03
45078;BME280;60508;42.622;25.416;2023-09-18T06:42:39;97352.38;;;21.86;59.97
45078;BME280;60508;42.622;25.416;2023-09-18T06:45:16;97352.28;;;22.19;59.32
45078;BME280;60508;42.622;25.416;2023-09-18T06:47:42;97366.09;;;21.02;62.27
45078;BME280;60508;42.622;25.416;2023-09-18T06:50:09;97361.00;;;21.47;62.53
45078;BME280;60508;42.622;25.416;2023-09-18T06:52:48;97345.91;;;21.16;62.65
45078;BME280;60508;42.622;25.416;2023-09-18T06:55:16;97362.50;;;20.87;63.90
45078;BME280;60508;42.622;25.416;2023-09-18T06:57:43;97353.00;;;20.60;64.24
45078;BME280;60508;42.622;25.416;2023-09-18T07:00:11;97359.69;;;20.92;62.83
45078;BME280;60508;42.622;25.416;2023-09-18T07:02:48;97366.19;;;20.96;63.18
45078;BME280;60508;42.622;25.416;2023-09-18T07:05:15;97365.91;;;20.79;62.86
45078;BME280;60508;42.622;25.416;2023-09-18T07:07:42;97361.59;;;20.92;62.34
45078;BME280;60508;42.622;25.416;2023-09-18T07:10:09;97353.03;;;21.31;60.47
45078;BME280;60508;42.622;25.416;2023-09-18T07:12:44;97361.06;;;21.61;59.36
45078;BME280;60508;42.622;25.416;2023-09-18T07:15:11;97358.66;;;22.15;58.53
45078;BME280;60508;42.622;25.416;2023-09-18T07:17:38;97360.69;;;22.51;57.45
45078;BME280;60508;42.622;25.416;2023-09-18T07:20:05;97351.59;;;22.78;56.99
45078;BME280;60508;42.622;25.416;2023-09-18T07:22:45;97355.84;;;22.84;55.57
45078;BME280;60508;42.622;25.416;2023-09-18T07:25:14;97351.25;;;22.93;55.49
45078;BME280;60508;42.622;25.416;2023-09-18T07:27:51;97357.44;;;23.22;54.08
45078;BME280;60508;42.622;25.416;2023-09-18T07:30:19;97348.25;;;23.04;53.98
45078;BME280;60508;42.622;25.416;2023-09-18T07:32:48;97350.28;;;23.12;52.89
45078;BME280;60508;42.622;25.416;2023-09-18T07:35:18;97356.06;;;23.33;52.39
45078;BME280;60508;42.622;25.416;2023-09-18T07:37:46;97362.13;;;23.44;51.92
45078;BME280;60508;42.622;25.416;2023-09-18T07:40:23;97347.56;;;23.66;51.53
45078;BME280;60508;42.622;25.416;2023-09-18T07:42:50;97353.72;;;23.18;51.98
45078;BME280;60508;42.622;25.416;2023-09-18T07:45:17;97357.56;;;23.39;52.37
45078;BME280;60508;42.622;25.416;2023-09-18T07:47:53;97354.25;;;23.51;50.74
45078;BME280;60508;42.622;25.416;2023-09-18T07:50:20;97358.41;;;23.03;51.44
45078;BME280;60508;42.622;25.416;2023-09-18T07:52:47;97349.16;;;23.36;51.39
45078;BME280;60508;42.622;25.416;2023-09-18T07:55:14;97360.34;;;23.48;50.27
45078;BME280;60508;42.622;25.416;2023-09-18T07:57:42;97358.75;;;23.47;49.95
45078;BME280;60508;42.622;25.416;2023-09-18T08:00:21;97353.94;;;23.30;49.90
45078;BME280;60508;42.622;25.416;2023-09-18T08:02:49;97364.13;;;23.29;50.32
45078;BME280;60508;42.622;25.416;2023-09-18T08:05:17;97358.22;;;22.77;51.52
45078;BME280;60508;42.622;25.416;2023-09-18T08:07:43;97361.13;;;22.81;51.48
45078;BME280;60508;42.622;25.416;2023-09-18T08:10:10;97353.97;;;22.71;51.49
45078;BME280;60508;42.622;25.416;2023-09-18T08:12:50;97354.25;;;22.69;51.36
45078;BME280;60508;42.622;25.416;2023-09-18T08:15:19;97351.75;;;22.95;51.24
45078;BME280;60508;42.622;25.416;2023-09-18T08:17:47;97350.06;;;23.22;51.00
45078;BME280;60508;42.622;25.416;2023-09-18T08:20:16;97343.84;;;23.70;48.89
45078;BME280;60508;42.622;25.416;2023-09-18T08:22:44;97350.50;;;23.78;48.07
45078;BME280;60508;42.622;25.416;2023-09-18T08:25:13;97336.09;;;23.95;47.38
45078;BME280;60508;42.622;25.416;2023-09-18T08:27:40;97346.38;;;24.30;47.17
45078;BME280;60508;42.622;25.416;2023-09-18T08:30:14;97348.41;;;24.64;45.18
45078;BME280;60508;42.622;25.416;2023-09-18T08:32:42;97344.94;;;24.32;44.75
45078;BME280;60508;42.622;25.416;2023-09-18T08:35:20;97334.22;;;24.13;45.33
45078;BME280;60508;42.622;25.416;2023-09-18T08:37:47;97341.53;;;24.27;45.49
45078;BME280;60508;42.622;25.416;2023-09-18T08:40:14;97334.81;;;24.59;45.12
45078;BME280;60508;42.622;25.416;2023-09-18T08:42:47;97331.75;;;24.87;43.86
45078;BME280;60508;42.622;25.416;2023-09-18T08:45:25;97326.41;;;25.08;43.39
45078;BME280;60508;42.622;25.416;2023-09-18T08:47:54;97316.41;;;24.86;42.55
45078;BME280;60508;42.622;25.416;2023-09-18T08:50:31;97321.91;;;24.59;43.54
45078;BME280;60508;42.622;25.416;2023-09-18T08:52:59;97322.88;;;24.99;43.03
45078;BME280;60508;42.622;25.416;2023-09-18T08:55:26;97311.06;;;25.07;42.11
45078;BME280;60508;42.622;25.416;2023-09-18T08:58:06;97315.69;;;24.28;43.06
45078;BME280;60508;42.622;25.416;2023-09-18T09:00:33;97317.81;;;24.39;42.59
45078;BME280;60508;42.622;25.416;2023-09-18T09:03:01;97312.09;;;24.10;42.64
45078;BME280;60508;42.622;25.416;2023-09-18T09:05:28;97311.06;;;24.72;42.25
45078;BME280;60508;42.622;25.416;2023-09-18T09:08:04;97310.06;;;25.20;40.46
45078;BME280;60508;42.622;25.416;2023-09-18T09:10:31;97301.38;;;25.74;39.58
45078;BME280;60508;42.622;25.416;2023-09-18T09:12:59;97299.63;;;25.61;38.11
45078;BME280;60508;42.622;25.416;2023-09-18T09:15:44;97296.06;;;26.37;36.11
45078;BME280;60508;42.622;25.416;2023-09-18T09:18:16;97292.47;;;27.21;34.79
45078;BME280;60508;42.622;25.416;2023-09-18T09:21:03;97293.53;;;27.87;32.68
45078;BME280;60508;42.622;25.416;2023-09-18T09:23:50;97290.50;;;27.67;29.34
45078;BME280;60508;42.622;25.416;2023-09-18T09:26:31;97300.13;;;28.85;28.56
45078;BME280;60508;42.622;25.416;2023-09-18T09:29:14;97295.94;;;29.31;27.75
45078;BME280;60508;42.622;25.416;2023-09-18T09:31:42;97290.19;;;30.52;26.41
45078;BME280;60508;42.622;25.416;2023-09-18T09:34:09;97287.91;;;30.93;25.39
45078;BME280;60508;42.622;25.416;2023-09-18T09:36:56;97293.00;;;31.30;24.85
45078;BME280;60508;42.622;25.416;2023-09-18T09:39:23;97294.53;;;31.27;24.93
45078;BME280;60508;42.622;25.416;2023-09-18T09:41:52;97286.97;;;31.67;24.36
45078;BME280;60508;42.622;25.416;2023-09-18T09:44:19;97291.59;;;30.81;24.96
45078;BME280;60508;42.622;25.416;2023-09-18T09:46:48;97295.19;;;30.62;25.06
45078;BME280;60508;42.622;25.416;2023-09-18T09:49:15;97297.19;;;31.20;25.14
45078;BME280;60508;42.622;25.416;2023-09-18T09:51:42;97282.84;;;31.18;25.35
45078;BME280;60508;42.622;25.416;2023-09-18T09:54:09;97275.00;;;30.46;25.87
45078;BME280;60508;42.622;25.416;2023-09-18T09:56:48;97274.44;;;32.03;23.96
45078;BME280;60508;42.622;25.416;2023-09-18T09:59:18;97286.19;;;32.43;23.62
45078;BME280;60508;42.622;25.416;2023-09-18T10:01:46;97273.38;;;32.65;22.96
45078;BME280;60508;42.622;25.416;2023-09-18T10:04:18;97271.59;;;33.14;22.43
45078;BME280;60508;42.622;25.416;2023-09-18T10:06:57;97287.19;;;33.19;22.59
45078;BME280;60508;42.622;25.416;2023-09-18T10:09:26;97280.72;;;33.48;21.82
45078;BME280;60508;42.622;25.416;2023-09-18T10:11:56;97268.50;;;33.60;21.65
45078;BME280;60508;42.622;25.416;2023-09-18T10:14:31;97280.09;;;33.66;21.24
45078;BME280;60508;42.622;25.416;2023-09-18T10:20:08;97266.16;;;32.61;22.54
45078;BME280;60508;42.622;25.416;2023-09-18T10:22:38;97287.75;;;33.01;21.24
45078;BME280;60508;42.622;25.416;2023-09-18T10:27:47;97286.81;;;32.60;20.70
45078;BME280;60508;42.622;25.416;2023-09-18T10:30:16;97266.16;;;32.07;21.47
45078;BME280;60508;42.622;25.416;2023-09-18T10:32:46;97258.03;;;33.46;20.50
45078;BME280;60508;42.622;25.416;2023-09-18T10:35:14;97261.19;;;34.42;20.01
45078;BME280;60508;42.622;25.416;2023-09-18T10:37:42;97264.88;;;34.60;19.26
45078;BME280;60508;42.622;25.416;2023-09-18T10:40:12;97257.28;;;34.57;19.03
45078;BME280;60508;42.622;25.416;2023-09-18T10:42:40;97254.25;;;34.17;19.13
45078;BME280;60508;42.622;25.416;2023-09-18T10:45:09;97266.47;;;34.61;18.86
45078;BME280;60508;42.622;25.416;2023-09-18T10:47:47;97264.34;;;35.21;18.00
45078;BME280;60508;42.622;25.416;2023-09-18T10:50:26;97261.19;;;35.26;18.24
45078;BME280;60508;42.622;25.416;2023-09-18T10:53:04;97254.84;;;35.61;18.13
45078;BME280;60508;42.622;25.416;2023-09-18T10:55:31;97258.84;;;36.36;17.94
45078;BME280;60508;42.622;25.416;2023-09-18T10:58:00;97263.53;;;36.82;17.92
45078;BME280;60508;42.622;25.416;2023-09-18T11:00:38;97257.91;;;37.56;17.65
45078;BME280;60508;42.622;25.416;2023-09-18T11:03:18;97258.63;;;38.58;16.80
45078;BME280;60508;42.622;25.416;2023-09-18T11:06:06;97259.25;;;38.77;16.24
45078;BME280;60508;42.622;25.416;2023-09-18T11:08:35;97249.63;;;36.50;17.56
45078;BME280;60508;42.622;25.416;2023-09-18T11:11:10;97251.50;;;36.85;17.32
45078;BME280;60508;42.622;25.416;2023-09-18T11:13:47;97246.59;;;37.71;16.21
45078;BME280;60508;42.622;25.416;2023-09-18T11:21:28;97251.22;;;38.75;15.78
45078;BME280;60508;42.622;25.416;2023-09-18T11:24:00;97209.34;;;35.97;17.65
45078;BME280;60508;42.622;25.416;2023-09-18T11:26:39;97241.06;;;36.89;17.59
45078;BME280;60508;42.622;25.416;2023-09-18T11:29:09;97243.66;;;37.33;17.37
45078;BME280;60508;42.622;25.416;2023-09-18T11:36:46;97240.47;;;37.87;16.72
45078;BME280;60508;42.622;25.416;2023-09-18T11:39:13;97229.06;;;38.08;16.97
45078;BME280;60508;42.622;25.416;2023-09-18T11:41:50;97222.31;;;37.50;17.52
45078;BME280;60508;42.622;25.416;2023-09-18T11:46:47;97208.13;;;35.51;18.57
45078;BME280;60508;42.622;25.416;2023-09-18T11:49:29;97200.53;;;35.41;18.85
45078;BME280;60508;42.622;25.416;2023-09-18T11:51:59;97212.50;;;35.34;18.40
45078;BME280;60508;42.622;25.416;2023-09-18T11:54:30;97200.44;;;36.45;17.98
45078;BME280;60508;42.622;25.416;2023-09-18T11:57:03;97208.88;;;37.79;16.62
45078;BME280;60508;42.622;25.416;2023-09-18T11:59:38;97208.81;;;38.97;15.78
45078;BME280;60508;42.622;25.416;2023-09-18T12:02:05;97213.34;;;38.87;15.65
45078;BME280;60508;42.622;25.416;2023-09-18T12:04:32;97200.81;;;38.95;15.99
45078;BME280;60508;42.622;25.416;2023-09-18T12:07:05;97198.47;;;40.19;15.08
45078;BME280;60508;42.622;25.416;2023-09-18T12:09:33;97198.03;;;40.81;14.78
45078;BME280;60508;42.622;25.416;2023-09-18T12:12:10;97187.78;;;41.27;13.89
45078;BME280;60508;42.622;25.416;2023-09-18T12:14:41;97199.13;;;41.07;13.88
45078;BME280;60508;42.622;25.416;2023-09-18T12:17:19;97199.16;;;41.56;13.55
45078;BME280;60508;42.622;25.416;2023-09-18T12:19:55;97201.41;;;42.27;13.48
45078;BME280;60508;42.622;25.416;2023-09-18T12:22:29;97207.13;;;42.82;12.89
45078;BME280;60508;42.622;25.416;2023-09-18T12:25:14;97196.06;;;42.17;13.42
45078;BME280;60508;42.622;25.416;2023-09-18T12:27:41;97196.63;;;43.86;12.46
45078;BME280;60508;42.622;25.416;2023-09-18T12:30:09;97200.38;;;43.31;12.49
45078;BME280;60508;42.622;25.416;2023-09-18T12:32:46;97195.59;;;42.77;12.94
45078;BME280;60508;42.622;25.416;2023-09-18T12:35:14;97180.94;;;40.72;14.22
45078;BME280;60508;42.622;25.416;2023-09-18T12:37:41;97177.88;;;39.78;14.59
45078;BME280;60508;42.622;25.416;2023-09-18T12:42:53;97176.16;;;41.58;14.09
45078;BME280;60508;42.622;25.416;2023-09-18T12:45:21;97184.13;;;43.96;12.52
45078;BME280;60508;42.622;25.416;2023-09-18T12:47:58;97192.09;;;45.62;11.63
45078;BME280;60508;42.622;25.416;2023-09-18T12:50:26;97190.69;;;46.87;10.57
45078;BME280;60508;42.622;25.416;2023-09-18T12:52:53;97185.88;;;46.41;10.81
45078;BME280;60508;42.622;25.416;2023-09-18T12:55:23;97184.09;;;46.80;10.63
45078;BME280;60508;42.622;25.416;2023-09-18T12:58:00;97188.09;;;48.91;9.63
45078;BME280;60508;42.622;25.416;2023-09-18T13:00:32;97147.41;;;47.83;9.74
45078;BME280;60508;42.622;25.416;2023-09-18T13:02:59;97161.44;;;45.38;10.88
45078;BME280;60508;42.622;25.416;2023-09-18T13:05:27;97154.97;;;40.64;14.13
45078;BME280;60508;42.622;25.416;2023-09-18T13:08:05;97156.25;;;43.59;12.51
45078;BME280;60508;42.622;25.416;2023-09-18T13:10:43;97164.38;;;46.40;10.45
45078;BME280;60508;42.622;25.416;2023-09-18T13:13:20;97157.38;;;48.56;9.70
45078;BME280;60508;42.622;25.416;2023-09-18T13:15:48;97163.38;;;47.32;10.03
45078;BME280;60508;42.622;25.416;2023-09-18T13:18:16;97155.97;;;46.92;10.19
45078;BME280;60508;42.622;25.416;2023-09-18T13:20:43;97153.06;;;47.68;9.87
45078;BME280;60508;42.622;25.416;2023-09-18T13:23:27;97156.28;;;46.75;10.21
45078;BME280;60508;42.622;25.416;2023-09-18T13:25:59;97152.28;;;48.75;9.52
45078;BME280;60508;42.622;25.416;2023-09-18T13:28:37;97145.16;;;44.35;11.85
45078;BME280;60508;42.622;25.416;2023-09-18T13:31:06;97134.06;;;44.72;11.66